Time;durP1;ratioP1;P1;durP2;ratioP2;P2;SDS_P1;SDS_P2;PMS_P1;PMS_P2;Temp;Humidity;BMP_temperature;BMP_pressure;BME280_temperature;BME280_humidity;BME280_pressure;Samples;Min_cycle;Max_cycle;Signal;HPM_P1;HPM_P2
2023/09/07 00:01:57;;;;;;;23.73;8.75;;;;;;;;;;4997172;28;20057;-78
2023/09/07 00:04:23;;;;;;;21.83;8.55;;;;;;;;;;4996105;28;20073;-78
2023/09/07 00:06:49;;;;;;;23.60;9.45;;;;;;;;;;4996787;28;20072;-79
2023/09/07 00:09:18;;;;;;;21.38;9.00;;;;;;;;;;4995369;28;20065;-78
2023/09/07 00:11:45;;;;;;;25.60;9.07;;;;;;;;;;4996342;28;20123;-78
2023/09/07 00:14:11;;;;;;;22.25;8.55;;;;;;;;;;4994517;28;20405;-78
2023/09/07 00:16:38;;;;;;;19.15;8.70;;;;;;;;;;4996063;28;20072;-80
2023/09/07 00:19:04;;;;;;;;;;;;;;;;;;4995512;28;20054;-77
2023/09/07 00:21:30;;;;;;;19.13;8.63;;;;;;;;;;4998027;28;19922;-78
2023/09/07 00:23:56;;;;;;;17.05;8.05;;;;;;;;;;5002593;28;20053;-77
2023/09/07 00:26:22;;;;;;;17.80;8.43;;;;;;;;;;5002806;28;20046;-79
2023/09/07 00:28:48;;;;;;;16.40;8.18;;;;;;;;;;5004661;28;20058;-78
2023/09/07 00:31:14;;;;;;;23.35;8.35;;;;;;;;;;5003752;28;20133;-78
2023/09/07 00:33:40;;;;;;;21.60;8.55;;;;;;;;;;5001527;28;20046;-78
2023/09/07 00:36:06;;;;;;;21.00;8.63;;;;;;;;;;4999309;28;20503;-78
2023/09/07 00:38:32;;;;;;;22.40;9.15;;;;;;;;;;4997098;28;20078;-78
2023/09/07 00:40:58;;;;;;;18.42;8.82;;;;;;;;;;4998008;28;20389;-79
2023/09/07 00:43:24;;;;;;;18.50;8.63;;;;;;;;;;4997629;28;20054;-78
2023/09/07 00:45:51;;;;;;;16.20;8.38;;;;;;;;;;4994871;28;20507;-79
2023/09/07 00:48:17;;;;;;;15.73;8.02;;;;;;;;;;4995405;28;20046;-79
2023/09/07 00:50:43;;;;;;;20.98;8.48;;;;;;;;;;4994609;28;20093;-77
2023/09/07 00:53:10;;;;;;;22.48;9.02;;;;;;;;;;4995223;28;20451;-78
2023/09/07 00:55:37;;;;;;;19.65;9.02;;;;;;;;;;4994440;28;20042;-78
2023/09/07 00:58:04;;;;;;;21.38;8.65;;;;;;;;;;4994857;28;20486;-79
2023/09/07 01:00:31;;;;;;;19.48;8.02;;;;;;;;;;4994479;28;20050;-78
2023/09/07 01:02:57;;;;;;;17.55;8.27;;;;;;;;;;4994805;28;20439;-78
2023/09/07 01:05:27;;;;;;;17.67;7.90;;;;;;;;;;4995325;28;20043;-80
2023/09/07 01:07:56;;;;;;;20.35;8.13;;;;;;;;;;4998285;28;20061;-78
2023/09/07 01:10:22;;;;;;;19.25;9.00;;;;;;;;;;4994317;28;20120;-78
2023/09/07 01:12:48;;;;;;;20.17;8.77;;;;;;;;;;4995262;28;20392;-79
2023/09/07 01:15:15;;;;;;;20.88;9.15;;;;;;;;;;4993941;28;20042;-80
2023/09/07 01:17:41;;;;;;;17.70;9.10;;;;;;;;;;4995753;28;20046;-78
2023/09/07 01:20:09;;;;;;;24.50;9.65;;;;;;;;;;4994990;28;20054;-77
2023/09/07 01:22:36;;;;;;;17.67;9.15;;;;;;;;;;4994927;28;20050;-79
2023/09/07 01:25:02;;;;;;;16.90;8.75;;;;;;;;;;4994328;28;20470;-80
2023/09/07 01:27:29;;;;;;;18.70;9.10;;;;;;;;;;4994073;28;20086;-79
2023/09/07 01:29:55;;;;;;;17.08;8.85;;;;;;;;;;4993897;28;20050;-79
2023/09/07 01:32:21;;;;;;;21.00;9.45;;;;;;;;;;4993639;28;20058;-78
2023/09/07 01:34:47;;;;;;;17.05;8.75;;;;;;;;;;4998141;28;20180;-79
2023/09/07 01:37:13;;;;;;;23.23;9.25;;;;;;;;;;4997989;28;20483;-79
2023/09/07 01:39:40;;;;;;;18.58;9.07;;;;;;;;;;4998116;28;20050;-79
2023/09/07 01:42:06;;;;;;;18.35;8.85;;;;;;;;;;4998625;28;20054;-79
2023/09/07 01:44:32;;;;;;;20.10;9.47;;;;;;;;;;4998369;28;20045;-78
2023/09/07 01:46:58;;;;;;;16.77;8.80;;;;;;;;;;4998325;28;20286;-79
2023/09/07 01:49:24;;;;;;;16.13;8.63;;;;;;;;;;4998120;28;20307;-79
2023/09/07 01:51:52;;;;;;;22.10;8.23;;;;;;;;;;4997969;28;20281;-79
2023/09/07 01:54:18;;;;;;;16.25;8.15;;;;;;;;;;4996732;28;20479;-78
2023/09/07 01:56:44;;;;;;;20.65;8.23;;;;;;;;;;4996779;28;20047;-79
2023/09/07 01:59:11;;;;;;;16.20;8.10;;;;;;;;;;4996996;28;20053;-79
2023/09/07 02:01:38;;;;;;;15.68;8.27;;;;;;;;;;4996543;28;20304;-79
2023/09/07 02:04:05;;;;;;;16.15;8.05;;;;;;;;;;4997673;28;20049;-80
2023/09/07 02:06:31;;;;;;;15.70;7.97;;;;;;;;;;4997201;28;20167;-79
2023/09/07 02:08:57;;;;;;;15.73;8.43;;;;;;;;;;4996419;28;20136;-78
2023/09/07 02:11:23;;;;;;;20.10;8.15;;;;;;;;;;4995065;28;20058;-80
2023/09/07 02:13:49;;;;;;;16.75;8.00;;;;;;;;;;5002433;28;20046;-80
2023/09/07 02:16:15;;;;;;;18.75;7.60;;;;;;;;;;4982351;28;20390;-78
2023/09/07 02:18:46;;;;;;;15.30;7.43;;;;;;;;;;4996647;28;20054;-79
2023/09/07 02:21:13;;;;;;;14.32;7.78;;;;;;;;;;4996284;28;20081;-79
2023/09/07 02:23:39;;;;;;;19.73;7.43;;;;;;;;;;4996473;28;20042;-79
2023/09/07 02:26:05;;;;;;;19.30;7.38;;;;;;;;;;4995958;28;20490;-79
2023/09/07 02:28:31;;;;;;;13.77;7.35;;;;;;;;;;4996346;28;20094;-79
2023/09/07 02:31:04;;;;;;;17.17;7.63;;;;;;;;;;4996307;28;20129;-77
2023/09/07 02:33:30;;;;;;;14.65;7.30;;;;;;;;;;4995964;28;20487;-79
2023/09/07 02:35:56;;;;;;;14.07;7.57;;;;;;;;;;4995985;28;20400;-78
2023/09/07 02:38:22;;;;;;;20.13;7.47;;;;;;;;;;4995221;28;20284;-78
2023/09/07 02:40:48;;;;;;;14.00;7.63;;;;;;;;;;4996066;28;20282;-78
2023/09/07 02:43:16;;;;;;;17.00;7.40;;;;;;;;;;4995696;28;20055;-78
2023/09/07 02:45:42;;;;;;;16.65;6.80;;;;;;;;;;4995752;28;20042;-77
2023/09/07 02:48:08;;;;;;;18.52;7.60;;;;;;;;;;4995687;28;20101;-79
2023/09/07 02:50:35;;;;;;;15.32;7.28;;;;;;;;;;4994675;28;20062;-80
2023/09/07 02:53:02;;;;;;;14.13;7.18;;;;;;;;;;4995376;28;20502;-79
2023/09/07 02:55:28;;;;;;;14.90;6.90;;;;;;;;;;4995262;28;20050;-79
2023/09/07 02:57:55;;;;;;;16.08;7.57;;;;;;;;;;4995609;28;20058;-79
2023/09/07 03:00:22;;;;;;;20.88;7.45;;;;;;;;;;4995416;28;20080;-77
2023/09/07 03:02:48;;;;;;;17.92;7.70;;;;;;;;;;4995450;28;20062;-78
2023/09/07 03:05:15;;;;;;;16.13;7.43;;;;;;;;;;4994702;28;20494;-77
2023/09/07 03:07:41;;;;;;;11.65;6.90;;;;;;;;;;4995890;28;20060;-78
2023/09/07 03:10:07;;;;;;;;;;;;;;;;;;4957566;28;1115751;-79
2023/09/07 03:12:34;;;;;;;21.98;7.05;;;;;;;;;;4995018;28;20000;-77
2023/09/07 03:15:03;;;;;;;13.80;7.70;;;;;;;;;;4996489;28;20208;-77
2023/09/07 03:17:29;;;;;;;17.00;7.30;;;;;;;;;;4996357;28;20166;-78
2023/09/07 03:19:56;;;;;;;15.52;7.93;;;;;;;;;;4997359;28;20090;-77
2023/09/07 03:22:23;;;;;;;15.65;8.02;;;;;;;;;;4997847;28;20395;-78
2023/09/07 03:24:52;;;;;;;16.50;8.02;;;;;;;;;;4997598;28;20038;-78
2023/09/07 03:27:18;;;;;;;14.65;7.25;;;;;;;;;;4996721;28;20050;-78
2023/09/07 03:29:45;;;;;;;17.25;7.70;;;;;;;;;;4996653;28;20047;-81
2023/09/07 03:32:11;;;;;;;17.08;8.25;;;;;;;;;;4995198;28;20137;-79
2023/09/07 03:34:37;;;;;;;16.77;7.93;;;;;;;;;;4995360;28;20050;-78
2023/09/07 03:37:05;;;;;;;19.25;8.05;;;;;;;;;;4997112;28;20078;-79
2023/09/07 03:39:32;;;;;;;15.25;8.43;;;;;;;;;;4995234;28;20109;-78
2023/09/07 03:41:58;;;;;;;15.85;8.30;;;;;;;;;;4978810;28;20133;-79
2023/09/07 03:44:24;;;;;;;15.75;7.80;;;;;;;;;;4994766;28;20054;-77
2023/09/07 03:46:50;;;;;;;14.00;8.23;;;;;;;;;;4994990;28;20050;-79
2023/09/07 03:49:16;;;;;;;17.77;8.30;;;;;;;;;;4996126;28;20602;-78
2023/09/07 03:51:42;;;;;;;15.27;8.37;;;;;;;;;;4995925;28;20285;-78
2023/09/07 03:54:08;;;;;;;15.60;8.10;;;;;;;;;;4994828;28;20057;-78
2023/09/07 03:56:34;;;;;;;14.33;8.50;;;;;;;;;;4978055;28;20050;-77
2023/09/07 03:59:00;;;;;;;20.47;8.13;;;;;;;;;;4978353;28;20297;-77
2023/09/07 04:01:26;;;;;;;15.70;8.87;;;;;;;;;;4996926;28;20289;-77
2023/09/07 04:03:53;;;;;;;16.40;8.13;;;;;;;;;;4994926;28;20129;-79
2023/09/07 04:06:19;;;;;;;19.13;8.63;;;;;;;;;;4996237;28;20274;-79
2023/09/07 04:08:45;;;;;;;18.88;9.20;;;;;;;;;;4996090;28;20129;-78
2023/09/07 04:11:11;;;;;;;20.00;8.97;;;;;;;;;;4996331;28;20477;-79
2023/09/07 04:13:37;;;;;;;19.20;9.32;;;;;;;;;;4995796;28;20046;-78
2023/09/07 04:16:03;;;;;;;19.30;9.07;;;;;;;;;;4995433;28;20057;-77
2023/09/07 04:18:30;;;;;;;23.40;9.50;;;;;;;;;;4994559;28;20054;-78
2023/09/07 04:21:05;;;;;;;17.55;9.25;;;;;;;;;;4978972;28;20504;-79
2023/09/07 04:23:31;;;;;;;17.38;8.82;;;;;;;;;;4995883;28;20183;-76
2023/09/07 04:26:09;;;;;;;19.07;9.03;;;;;;;;;;4995714;28;20053;-78
2023/09/07 04:28:36;;;;;;;17.40;8.70;;;;;;;;;;4996950;28;20046;-77
2023/09/07 04:31:02;;;;;;;16.58;8.57;;;;;;;;;;4998356;28;20184;-78
2023/09/07 04:33:32;;;;;;;19.75;8.68;;;;;;;;;;4995076;28;20046;-78
2023/09/07 04:36:06;;;;;;;17.13;8.70;;;;;;;;;;4995394;28;20104;-78
2023/09/07 04:38:33;;;;;;;16.25;8.85;;;;;;;;;;4995637;28;20046;-79
2023/09/07 04:41:12;;;;;;;19.53;9.43;;;;;;;;;;4995462;28;20053;-78
2023/09/07 04:43:40;;;;;;;17.85;9.18;;;;;;;;;;4995094;28;20133;-78
2023/09/07 04:46:06;;;;;;;20.70;9.40;;;;;;;;;;4995442;28;20433;-78
2023/09/07 04:48:34;;;;;;;15.70;9.13;;;;;;;;;;4995119;28;20053;-78
2023/09/07 04:51:00;;;;;;;18.38;9.55;;;;;;;;;;4994838;28;20104;-79
2023/09/07 04:53:28;;;;;;;17.73;9.70;;;;;;;;;;4994557;28;20064;-78
2023/09/07 04:55:55;;;;;;;17.90;9.65;;;;;;;;;;4995131;28;20070;-78
2023/09/07 04:58:21;;;;;;;17.60;9.13;;;;;;;;;;4993829;28;20100;-78
2023/09/07 05:00:47;;;;;;;17.90;9.88;;;;;;;;;;4994472;28;20621;-78
2023/09/07 05:03:13;;;;;;;17.90;9.95;;;;;;;;;;4994729;28;20458;-78
2023/09/07 05:05:39;;;;;;;15.70;10.02;;;;;;;;;;4995237;28;20046;-77
2023/09/07 05:08:06;;;;;;;18.85;9.38;;;;;;;;;;4995261;28;20399;-78
2023/09/07 05:10:35;;;;;;;17.63;9.10;;;;;;;;;;4994877;28;20062;-78
2023/09/07 05:13:01;;;;;;;17.33;9.90;;;;;;;;;;4995015;28;20061;-77
2023/09/07 05:15:27;;;;;;;19.33;9.83;;;;;;;;;;4994388;28;20085;-79
2023/09/07 05:17:53;;;;;;;19.30;10.30;;;;;;;;;;4995373;28;20622;-77
2023/09/07 05:20:20;;;;;;;16.85;8.63;;;;;;;;;;4994023;28;20053;-78
2023/09/07 05:22:46;;;;;;;18.77;9.67;;;;;;;;;;4995617;28;20138;-79
2023/09/07 05:25:12;;;;;;;25.03;9.97;;;;;;;;;;4996302;28;20053;-77
2023/09/07 05:27:38;;;;;;;17.92;9.25;;;;;;;;;;4995229;28;20285;-78
2023/09/07 05:30:05;;;;;;;22.15;9.73;;;;;;;;;;4994676;28;20073;-77
2023/09/07 05:32:31;;;;;;;23.48;9.48;;;;;;;;;;4993398;28;20132;-78
2023/09/07 05:34:57;;;;;;;18.27;9.43;;;;;;;;;;4994800;28;20116;-78
2023/09/07 05:37:23;;;;;;;18.70;9.25;;;;;;;;;;4995657;28;20426;-78
2023/09/07 05:39:49;;;;;;;19.15;9.52;;;;;;;;;;4995171;28;20088;-77
2023/09/07 05:42:16;;;;;;;18.77;9.80;;;;;;;;;;4996808;28;20100;-79
2023/09/07 05:44:42;;;;;;;20.35;8.90;;;;;;;;;;4995573;28;20296;-79
2023/09/07 05:47:08;;;;;;;18.05;8.70;;;;;;;;;;4995189;28;20042;-78
2023/09/07 05:49:34;;;;;;;17.15;9.02;;;;;;;;;;4993254;28;20061;-78
2023/09/07 05:52:00;;;;;;;21.43;9.10;;;;;;;;;;4994198;28;20332;-77
2023/09/07 05:54:26;;;;;;;17.97;9.10;;;;;;;;;;4995702;28;20050;-78
2023/09/07 05:56:52;;;;;;;17.57;9.93;;;;;;;;;;4994279;28;20300;-79
2023/09/07 05:59:19;;;;;;;20.37;9.40;;;;;;;;;;4997634;28;20280;-78
2023/09/07 06:01:45;;;;;;;19.65;9.23;;;;;;;;;;4995851;28;20286;-76
2023/09/07 06:04:12;;;;;;;17.48;9.30;;;;;;;;;;4996014;28;20050;-78
2023/09/07 06:06:38;;;;;;;23.40;9.38;;;;;;;;;;4997991;28;20054;-78
2023/09/07 06:09:04;;;;;;;18.33;10.10;;;;;;;;;;5001554;28;20068;-77
2023/09/07 06:11:31;;;;;;;14.70;9.15;;;;;;;;;;5001680;28;20138;-78
2023/09/07 06:13:58;;;;;;;18.40;9.35;;;;;;;;;;5001722;28;20054;-78
2023/09/07 06:16:24;;;;;;;18.98;9.32;;;;;;;;;;4999825;28;20557;-78
2023/09/07 06:18:50;;;;;;;21.57;10.03;;;;;;;;;;4995912;28;20514;-78
2023/09/07 06:21:16;;;;;;;18.33;9.83;;;;;;;;;;4997652;28;20294;-77
2023/09/07 06:23:43;;;;;;;20.40;10.00;;;;;;;;;;4997755;28;20282;-78
2023/09/07 06:26:09;;;;;;;16.35;9.25;;;;;;;;;;4997415;28;20288;-80
2023/09/07 06:28:35;;;;;;;19.87;11.90;;;;;;;;;;4997554;28;20050;-79
2023/09/07 06:31:01;;;;;;;20.57;11.50;;;;;;;;;;4996919;28;20298;-79
2023/09/07 06:33:27;;;;;;;22.05;10.95;;;;;;;;;;4998106;28;20133;-78
2023/09/07 06:35:53;;;;;;;21.60;10.57;;;;;;;;;;4997745;28;20463;-78
2023/09/07 06:38:19;;;;;;;22.83;9.93;;;;;;;;;;4996049;28;20046;-80
2023/09/07 06:40:49;;;;;;;19.25;10.10;;;;;;;;;;4980242;28;20065;-78
2023/09/07 06:43:15;;;;;;;19.10;11.20;;;;;;;;;;4997010;28;20065;-78
2023/09/07 06:45:41;;;;;;;20.95;11.00;;;;;;;;;;4997947;28;20065;-79
2023/09/07 06:48:07;;;;;;;17.63;10.63;;;;;;;;;;4999713;28;20140;-79
2023/09/07 06:50:34;;;;;;;18.98;10.13;;;;;;;;;;5005621;28;20088;-80
2023/09/07 06:53:00;;;;;;;21.90;11.43;;;;;;;;;;5004954;28;20050;-78
2023/09/07 06:55:26;;;;;;;19.80;10.85;;;;;;;;;;5003205;28;20053;-78
2023/09/07 06:57:54;;;;;;;26.42;13.05;;;;;;;;;;5002946;28;20046;-79
2023/09/07 07:00:20;;;;;;;26.70;13.07;;;;;;;;;;5002941;28;20050;-78
2023/09/07 07:02:46;;;;;;;20.88;11.00;;;;;;;;;;4984496;28;20051;-79
2023/09/07 07:05:12;;;;;;;22.90;10.80;;;;;;;;;;5000287;28;20128;-79
2023/09/07 07:07:39;;;;;;;19.53;11.10;;;;;;;;;;4999590;28;20615;-78
2023/09/07 07:10:06;;;;;;;23.50;11.20;;;;;;;;;;4996902;28;20060;-78
2023/09/07 07:12:35;;;;;;;;;;;;;;;;;;4997959;28;20363;-80
2023/09/07 07:15:04;;;;;;;21.10;11.15;;;;;;;;;;4997205;28;19992;-78
2023/09/07 07:17:30;;;;;;;23.45;11.40;;;;;;;;;;4997121;28;20054;-79
2023/09/07 07:19:56;;;;;;;35.83;19.50;;;;;;;;;;4997427;28;20046;-78
2023/09/07 07:22:22;;;;;;;23.02;13.10;;;;;;;;;;4996503;28;20474;-80
2023/09/07 07:24:48;;;;;;;22.25;11.55;;;;;;;;;;4998143;28;20046;-80
2023/09/07 07:27:15;;;;;;;23.27;12.23;;;;;;;;;;4997332;28;20085;-80
2023/09/07 07:29:41;;;;;;;24.23;12.00;;;;;;;;;;4996699;28;20328;-76
2023/09/07 07:32:07;;;;;;;22.58;11.57;;;;;;;;;;4995798;28;20043;-78
2023/09/07 07:34:33;;;;;;;23.60;11.52;;;;;;;;;;4996533;28;20171;-78
2023/09/07 07:36:59;;;;;;;21.40;11.60;;;;;;;;;;4996429;28;20050;-80
2023/09/07 07:39:25;;;;;;;20.23;10.63;;;;;;;;;;4996194;28;20285;-78
2023/09/07 07:41:51;;;;;;;21.95;11.45;;;;;;;;;;4998353;28;20050;-79
2023/09/07 07:44:17;;;;;;;19.80;11.27;;;;;;;;;;4996862;28;20050;-77
2023/09/07 07:46:44;;;;;;;21.50;11.50;;;;;;;;;;4996932;28;20049;-80
2023/09/07 07:49:10;;;;;;;18.85;10.35;;;;;;;;;;4994913;28;20153;-79
2023/09/07 07:51:37;;;;;;;21.08;10.70;;;;;;;;;;4996415;28;20046;-79
2023/09/07 07:54:03;;;;;;;20.77;10.85;;;;;;;;;;4996778;28;20042;-79
2023/09/07 07:56:29;;;;;;;22.33;10.82;;;;;;;;;;5000195;28;20046;-79
2023/09/07 07:58:55;;;;;;;24.48;10.68;;;;;;;;;;4998779;28;20051;-80
2023/09/07 08:01:22;;;;;;;20.23;11.40;;;;;;;;;;4980046;28;20053;-79
2023/09/07 08:03:48;;;;;;;22.60;10.75;;;;;;;;;;4994746;28;20054;-79
2023/09/07 08:06:14;;;;;;;19.90;11.15;;;;;;;;;;4995019;28;20081;-81
2023/09/07 08:08:40;;;;;;;21.20;11.13;;;;;;;;;;4978790;28;20053;-83
2023/09/07 08:11:07;;;;;;;20.48;11.43;;;;;;;;;;4995136;28;20060;-79
2023/09/07 08:13:36;;;;;;;20.35;10.95;;;;;;;;;;4994685;28;20468;-81
2023/09/07 08:16:03;;;;;;;20.58;11.32;;;;;;;;;;4997385;28;20456;-78
2023/09/07 08:18:31;;;;;;;23.17;11.02;;;;;;;;;;4995005;28;20058;-80
2023/09/07 08:20:57;;;;;;;23.27;11.52;;;;;;;;;;4996297;28;20054;-80
2023/09/07 08:23:23;;;;;;;20.52;10.43;;;;;;;;;;4995919;28;20125;-80
2023/09/07 08:25:51;;;;;;;27.77;11.40;;;;;;;;;;4995368;28;20046;-78
2023/09/07 08:28:18;;;;;;;19.88;11.02;;;;;;;;;;4995240;28;20050;-82
2023/09/07 08:30:44;;;;;;;20.55;10.93;;;;;;;;;;4996159;28;20046;-81
2023/09/07 08:33:10;;;;;;;22.73;11.10;;;;;;;;;;4996235;28;20058;-81
2023/09/07 08:35:43;;;;;;;20.08;11.35;;;;;;;;;;4996667;28;20044;-83
2023/09/07 08:38:10;;;;;;;21.15;11.00;;;;;;;;;;4996843;28;20054;-84
2023/09/07 08:40:37;;;;;;;19.63;10.55;;;;;;;;;;4995528;28;20092;-81
2023/09/07 08:43:05;;;;;;;25.17;11.07;;;;;;;;;;4994689;28;20129;-82
2023/09/07 08:45:33;;;;;;;26.30;10.90;;;;;;;;;;4994266;28;20050;-82
2023/09/07 08:48:00;;;;;;;22.63;10.35;;;;;;;;;;4995149;28;20042;-79
2023/09/07 08:50:26;;;;;;;20.92;11.40;;;;;;;;;;4995696;28;20077;-82
2023/09/07 08:52:53;;;;;;;27.15;10.27;;;;;;;;;;4994770;28;20065;-81
2023/09/07 08:55:20;;;;;;;31.17;11.65;;;;;;;;;;4999100;28;20037;-79
2023/09/07 08:57:46;;;;;;;22.27;10.90;;;;;;;;;;5004228;28;20054;-82
2023/09/07 09:00:16;;;;;;;25.48;10.55;;;;;;;;;;4995287;28;20126;-80
2023/09/07 09:02:42;;;;;;;22.65;11.10;;;;;;;;;;4996821;28;20454;-83
2023/09/07 09:05:12;;;;;;;22.52;11.25;;;;;;;;;;4995876;28;20057;-81
2023/09/07 09:07:39;;;;;;;23.60;10.68;;;;;;;;;;4994073;28;20053;-78
2023/09/07 09:10:08;;;;;;;28.00;11.25;;;;;;;;;;4994969;28;20450;-81
2023/09/07 09:12:35;;;;;;;30.60;11.38;;;;;;;;;;4993792;28;20069;-82
2023/09/07 09:15:03;;;;;;;22.45;11.20;;;;;;;;;;4993527;28;20084;-80
2023/09/07 09:17:29;;;;;;;23.40;11.40;;;;;;;;;;4994698;28;20057;-79
2023/09/07 09:19:55;;;;;;;25.60;10.85;;;;;;;;;;4994850;28;20050;-80
2023/09/07 09:22:24;;;;;;;30.90;10.73;;;;;;;;;;4994418;28;20467;-83
2023/09/07 09:24:50;;;;;;;27.02;11.25;;;;;;;;;;4995539;28;20050;-81
2023/09/07 09:27:17;;;;;;;20.20;10.60;;;;;;;;;;4993485;28;20050;-84
2023/09/07 09:29:44;;;;;;;30.17;12.13;;;;;;;;;;4994589;28;20478;-83
2023/09/07 09:32:10;;;;;;;21.83;11.82;;;;;;;;;;4993738;28;20399;-83
2023/09/07 09:34:38;;;;;;;24.33;11.00;;;;;;;;;;4994784;28;20042;-80
2023/09/07 09:37:05;;;;;;;23.90;10.52;;;;;;;;;;4994268;28;20061;-82
2023/09/07 09:39:31;;;;;;;24.05;11.23;;;;;;;;;;4994804;28;20054;-83
2023/09/07 09:41:58;;;;;;;24.60;11.20;;;;;;;;;;4992776;28;20050;-82
2023/09/07 09:44:25;;;;;;;25.17;11.20;;;;;;;;;;4993714;28;20107;-82
2023/09/07 09:46:52;;;;;;;32.40;11.68;;;;;;;;;;4993737;28;20050;-81
2023/09/07 09:49:20;;;;;;;20.85;11.05;;;;;;;;;;4994196;28;20144;-82
2023/09/07 09:51:48;;;;;;;24.77;10.35;;;;;;;;;;4993918;28;20057;-80
2023/09/07 09:54:14;;;;;;;27.67;12.00;;;;;;;;;;5000258;28;20490;-79
2023/09/07 09:56:42;;;;;;;25.88;10.88;;;;;;;;;;5009888;28;20113;-83
2023/09/07 09:59:08;;;;;;;21.30;11.13;;;;;;;;;;4997279;28;20473;-78
2023/09/07 10:01:50;;;;;;;26.02;11.82;;;;;;;;;;4998081;28;20046;-84
2023/09/07 10:04:17;;;;;;;25.95;10.90;;;;;;;;;;4998167;28;20056;-82
2023/09/07 10:06:56;;;;;;;24.08;10.98;;;;;;;;;;4998446;28;20050;-83
2023/09/07 10:09:22;;;;;;;26.27;11.32;;;;;;;;;;4981092;28;20403;-84
2023/09/07 10:11:53;;;;;;;25.10;11.82;;;;;;;;;;4997366;28;20064;-82
2023/09/07 10:14:19;;;;;;;23.60;10.93;;;;;;;;;;4996414;28;20064;-83
2023/09/07 10:16:47;;;;;;;26.85;11.23;;;;;;;;;;4997379;28;20112;-82
2023/09/07 10:19:20;;;;;;;21.63;11.02;;;;;;;;;;4997332;28;20046;-84
2023/09/07 10:21:46;;;;;;;21.88;11.27;;;;;;;;;;4997858;28;20077;-81
2023/09/07 10:24:12;;;;;;;25.08;10.63;;;;;;;;;;4997377;28;20042;-83
2023/09/07 10:26:39;;;;;;;22.88;11.32;;;;;;;;;;4997623;28;20104;-88
2023/09/07 10:29:05;;;;;;;22.90;10.82;;;;;;;;;;4997496;28;20371;-81
2023/09/07 10:31:31;;;;;;;;;;;;;;;;;;4997855;28;20517;-83
2023/09/07 10:34:08;;;;;;;22.90;10.80;;;;;;;;;;4997521;28;19922;-83
2023/09/07 10:36:35;;;;;;;28.90;11.43;;;;;;;;;;4999768;28;20038;-82
2023/09/07 10:39:01;;;;;;;19.83;11.13;;;;;;;;;;4998118;28;20081;-83
2023/09/07 10:41:27;;;;;;;26.30;11.98;;;;;;;;;;4995753;28;20050;-82
2023/09/07 10:43:57;;;;;;;23.10;10.48;;;;;;;;;;4997244;28;20128;-84
2023/09/07 10:46:24;;;;;;;23.80;11.23;;;;;;;;;;4996383;28;20061;-82
2023/09/07 10:48:54;;;;;;;22.55;10.60;;;;;;;;;;4999754;28;20053;-85
2023/09/07 10:51:20;;;;;;;22.60;10.85;;;;;;;;;;5012236;28;20056;-84
2023/09/07 10:53:46;;;;;;;23.52;11.32;;;;;;;;;;4998865;28;20069;-83
2023/09/07 10:56:12;;;;;;;19.42;10.63;;;25.60;99.90;;;;;;4998048;28;20043;-82
2023/09/07 10:58:40;;;;;;;21.13;11.20;;;25.70;99.90;;;;;;4980494;28;20100;-85
2023/09/07 11:01:06;;;;;;;22.00;11.40;;;25.70;99.90;;;;;;4998046;28;20077;-83
2023/09/07 11:03:33;;;;;;;19.98;11.05;;;25.80;99.90;;;;;;4999048;28;20490;-84
2023/09/07 11:06:10;;;;;;;20.98;10.85;;;25.80;99.90;;;;;;4996418;28;20077;-84
2023/09/07 11:08:35;;;;;;;27.00;11.65;;;25.90;99.90;;;;;;4998593;28;20364;-83
2023/09/07 11:11:03;;;;;;;25.77;11.10;;;26.00;99.90;;;;;;4996008;28;20117;-84
2023/09/07 11:13:29;;;;;;;22.83;11.05;;;26.00;99.90;;;;;;4999797;28;20584;-81
2023/09/07 11:15:57;;;;;;;25.52;11.20;;;26.10;99.90;;;;;;4997296;28;20046;-81
2023/09/07 11:18:23;;;;;;;29.10;11.27;;;26.10;99.90;;;;;;4996356;28;20050;-83
2023/09/07 11:20:50;;;;;;;23.15;11.50;;;26.20;99.90;;;;;;4995851;28;20138;-81
2023/09/07 11:23:21;;;;;;;25.00;11.45;;;26.20;99.90;;;;;;4998034;28;20133;-81
2023/09/07 11:25:48;;;;;;;26.20;12.18;;;26.30;99.90;;;;;;4997494;28;20046;-86
2023/09/07 11:28:17;;;;;;;24.35;12.00;;;26.40;99.90;;;;;;4997153;28;20050;-83
2023/09/07 11:30:54;;;;;;;25.08;10.98;;;26.40;99.90;;;;;;4998494;28;20046;-81
2023/09/07 11:33:21;;;;;;;25.60;11.55;;;26.60;99.90;;;;;;4995624;28;20373;-85
2023/09/07 11:35:47;;;;;;;21.52;11.43;;;;;;;;;;4996207;28;20113;-83
2023/09/07 11:38:15;;;;;;;26.65;11.85;;;;;;;;;;4996798;28;20180;-82
2023/09/07 11:40:44;;;;;;;24.70;11.73;;;;;;;;;;4997158;28;20104;-85
2023/09/07 11:43:14;;;;;;;23.77;11.55;;;;;;;;;;5002782;28;20050;-83
2023/09/07 11:45:41;;;;;;;30.02;11.50;;;;;;;;;;4997244;28;20085;-84
2023/09/07 11:48:10;;;;;;;27.73;12.52;;;;;;;;;;4997933;28;20047;-81
2023/09/07 11:50:37;;;;;;;29.85;12.07;;;;;;;;;;4996058;28;20046;-82
2023/09/07 11:53:03;;;;;;;28.17;11.88;;;;;;;;;;4997351;28;20051;-83
2023/09/07 11:55:29;;;;;;;26.27;11.55;;;;;;;;;;4998186;28;20046;-82
2023/09/07 11:57:56;;;;;;;31.13;10.90;;;;;;;;;;4997386;28;20046;-84
2023/09/07 12:00:23;;;;;;;27.70;11.52;;;;;;;;;;4996602;28;20081;-83
2023/09/07 12:02:49;;;;;;;27.10;11.60;;;;;;;;;;4995742;28;20073;-82
2023/09/07 12:05:15;;;;;;;21.52;10.77;;;;;;;;;;4979885;28;20425;-82
2023/09/07 12:07:45;;;;;;;24.65;11.13;;;;;;;;;;4995938;28;20050;-79
2023/09/07 12:10:13;;;;;;;24.60;11.13;;;;;;;;;;4997316;28;20188;-83
2023/09/07 12:12:39;;;;;;;24.02;11.27;;;;;;;;;;4996894;28;20062;-83
2023/09/07 12:15:06;;;;;;;24.38;11.10;;;;;;;;;;4994439;28;20218;-82
2023/09/07 12:17:32;;;;;;;27.30;11.35;;;;;;;;;;4995834;28;20046;-84
2023/09/07 12:19:58;;;;;;;;;;;;;;;;;;4995662;28;20050;-82
2023/09/07 12:22:25;;;;;;;28.85;11.60;;;;;;;;;;4995832;28;19922;-81
2023/09/07 12:24:51;;;;;;;25.55;11.55;;;;;;;;;;4995872;28;20050;-84
2023/09/07 12:27:18;;;;;;;29.73;12.70;;;;;;;;;;4994994;28;20050;-82
2023/09/07 12:29:44;;;;;;;30.20;11.13;;;;;;;;;;4995547;28;20487;-85
2023/09/07 12:32:11;;;;;;;43.47;12.95;;;;;;;;;;4995461;28;20069;-83
2023/09/07 12:34:37;;;;;;;31.95;12.63;;;;;;;;;;4996350;28;20105;-79
2023/09/07 12:37:06;;;;;;;;;;;;;;;;;;5004008;28;20066;-84
2023/09/07 12:39:33;;;;;;;29.98;12.30;;;;;;;;;;5005107;28;19926;-82
2023/09/07 12:41:59;;;;;;;27.95;12.10;;;;;;;;;;5005439;28;20111;-81
2023/09/07 12:44:25;;;;;;;25.92;12.02;;;;;;;;;;5004020;28;20050;-83
2023/09/07 12:46:51;;;;;;;33.67;12.23;;;;;;;;;;5003792;28;20049;-83
2023/09/07 12:49:17;;;;;;;25.52;11.60;;;;;;;;;;5001314;28;20053;-81
2023/09/07 12:51:43;;;;;;;29.67;12.52;;;;;;;;;;5002420;28;20093;-85
2023/09/07 12:54:09;;;;;;;;;;;;;;;;;;5001078;28;20061;-85
2023/09/07 12:56:35;;;;;;;;;;;;;;;;;;4995993;28;19921;-83
2023/09/07 12:59:03;;;;;;;;;;;;;;;;;;4996099;28;20329;-83
2023/09/07 13:01:30;;;;;;;28.15;12.15;;;;;;;;;;4994553;28;20431;-83
2023/09/07 13:03:56;;;;;;;25.63;12.30;;;;;;;;;;4995316;28;20054;-86
2023/09/07 13:06:23;;;;;;;23.80;12.35;;;;;;;;;;4995116;28;20057;-86
2023/09/07 13:08:49;;;;;;;24.50;12.45;;;;;;;;;;4998776;28;20050;-83
2023/09/07 13:11:15;;;;;;;26.02;12.93;;;;;;;;;;5000956;28;20116;-84
2023/09/07 13:13:41;;;;;;;26.02;12.18;;;;;;;;;;4995731;28;20505;-76
2023/09/07 13:16:07;;;;;;;28.42;12.73;;;;;;;;;;4996145;28;20047;-86
2023/09/07 13:18:33;;;;;;;30.30;12.60;;;;;;;;;;4997936;28;20050;-86
2023/09/07 13:21:00;;;;;;;25.45;12.18;;;;;;;;;;5003343;28;20046;-81
2023/09/07 13:23:31;;;;;;;32.85;11.43;;;;;;;;;;5002768;28;20049;-85
2023/09/07 13:25:57;;;;;;;27.92;11.80;;;;;;;;;;5002530;28;20118;-84
2023/09/07 13:28:23;;;;;;;30.02;11.75;;;;;;;;;;5003637;28;20037;-85
2023/09/07 13:30:50;;;;;;;33.22;12.52;;;;;;;;;;5002846;28;20055;-82
2023/09/07 13:33:16;;;;;;;26.02;12.38;;;;;;;;;;5001498;28;20062;-82
2023/09/07 13:35:43;;;;;;;27.77;11.52;;;;;;;;;;5001459;28;20049;-82
2023/09/07 13:38:09;;;;;;;24.00;10.82;;;;;;;;;;5001858;28;20210;-82
2023/09/07 13:40:35;;;;;;;26.95;11.32;;;;;;;;;;4999451;28;20174;-84
2023/09/07 13:43:02;;;;;;;20.50;10.52;;;;;;;;;;5001093;28;20196;-82
2023/09/07 13:45:31;;;;;;;19.98;11.15;;;;;;;;;;4997994;28;20046;-86
2023/09/07 13:47:57;;;;;;;28.85;11.35;;;;;;;;;;4997766;28;20046;-84
2023/09/07 13:50:23;;;;;;;21.58;11.23;;;;;;;;;;4998340;28;20072;-83
2023/09/07 13:52:49;;;;;;;25.67;11.32;;;;;;;;;;4998615;28;20046;-83
2023/09/07 13:55:16;;;;;;;24.70;10.75;;;;;;;;;;4996858;28;20518;-85
2023/09/07 13:57:42;;;;;;;22.45;10.95;;;;;;;;;;4999063;28;20141;-86
2023/09/07 14:00:08;;;;;;;27.45;11.07;;;;;;;;;;4998107;28;20050;-83
2023/09/07 14:02:34;;;;;;;23.17;11.85;;;;;;;;;;4996976;28;20050;-81
2023/09/07 14:05:00;;;;;;;26.45;11.25;;;;;;;;;;4998762;28;20057;-84
2023/09/07 14:07:26;;;;;;;25.83;12.55;;;;;;;;;;4998673;28;20391;-83
2023/09/07 14:09:54;;;;;;;24.35;11.05;;;;;;;;;;4998178;28;20090;-82
2023/09/07 14:12:21;;;;;;;54.25;13.02;;;;;;;;;;4996139;28;20058;-82
2023/09/07 14:14:47;;;;;;;25.98;10.75;;;;;;;;;;4998269;28;20050;-81
2023/09/07 14:17:14;;;;;;;43.83;10.82;;;;;;;;;;4997799;28;20498;-86
2023/09/07 14:19:40;;;;;;;24.13;10.48;;;;;;;;;;4996395;28;20479;-85